Portada
METAR-TAF:

METAR-TAF

Aeropuertos :

Gorgan, Irán

latitud: 36-49N, longitud: 054-28E, altitud: 155 m

Observación

El informe se hizo hace 25 minutos, a las 02:00 UTC
Viento calma
Temperatura 9°C
Humedad 87%
Presión 1015 hPa
Visibilidad 10 km o más
sin nubes por debajo de 1500 m y sin presencia de cumulonimbus.

METAR: OING 200200Z 00000KT CAVOK 09/07 Q1015

Hora: 05:55 (02:25 UTC)


TAF: falta

Observaciones y pronósticos meteorológicos de más de 4000 aeropuertos (mensajes METAR y TAF).

Los puntos amarillos y rojos representan las estaciones disponibles.

Ponga el ratón en el punto deseado para ver el nombre de la estación.

Haga clic para ver las observaciones y los pronósticos meteorológicos.

Para cambiar el mapa : haga clic en los botones verdes con una cruz de color negro para hacer un zoom, en el botón verde con un guión para alejar o en las flechas verdes para mapas adyacentes.


METAR-TAF: